sensor_id;sensor_type;location;lat;lon;timestamp;temperature;humidity
67192;HTU21D;54120;53.504;49.426;2023-05-09T00:00:45;2.58;65.00
67192;HTU21D;54120;53.504;49.426;2023-05-09T00:03:43;2.54;65.58
67192;HTU21D;54120;53.504;49.426;2023-05-09T00:06:09;2.42;66.09
67192;HTU21D;54120;53.504;49.426;2023-05-09T00:08:36;2.35;66.53
67192;HTU21D;54120;53.504;49.426;2023-05-09T00:16:45;2.25;67.65
67192;HTU21D;54120;53.504;49.426;2023-05-09T00:19:12;2.19;68.26
67192;HTU21D;54120;53.504;49.426;2023-05-09T00:21:38;2.16;68.61
67192;HTU21D;54120;53.504;49.426;2023-05-09T00:24:04;2.06;69.39
67192;HTU21D;54120;53.504;49.426;2023-05-09T00:26:30;2.02;69.59
67192;HTU21D;54120;53.504;49.426;2023-05-09T00:28:56;1.86;70.53
67192;HTU21D;54120;53.504;49.426;2023-05-09T00:31:25;1.65;71.29
67192;HTU21D;54120;53.504;49.426;2023-05-09T00:33:52;1.53;72.13
67192;HTU21D;54120;53.504;49.426;2023-05-09T00:36:26;1.64;71.72
67192;HTU21D;54120;53.504;49.426;2023-05-09T00:38:52;1.77;70.99
67192;HTU21D;54120;53.504;49.426;2023-05-09T00:41:20;1.93;70.06
67192;HTU21D;54120;53.504;49.426;2023-05-09T00:43:46;2.06;69.24
67192;HTU21D;54120;53.504;49.426;2023-05-09T00:46:13;2.17;68.71
67192;HTU21D;54120;53.504;49.426;2023-05-09T00:48:39;2.29;67.63
67192;HTU21D;54120;53.504;49.426;2023-05-09T00:51:06;2.38;67.30
67192;HTU21D;54120;53.504;49.426;2023-05-09T00:53:33;2.44;66.21
67192;HTU21D;54120;53.504;49.426;2023-05-09T00:56:01;2.45;66.50
67192;HTU21D;54120;53.504;49.426;2023-05-09T00:58:27;2.43;66.34
67192;HTU21D;54120;53.504;49.426;2023-05-09T01:00:54;2.45;65.98
67192;HTU21D;54120;53.504;49.426;2023-05-09T01:03:20;2.54;64.95
67192;HTU21D;54120;53.504;49.426;2023-05-09T01:11:35;2.75;62.85
67192;HTU21D;54120;53.504;49.426;2023-05-09T01:14:19;2.87;62.75
67192;HTU21D;54120;53.504;49.426;2023-05-09T01:17:06;2.97;62.21
67192;HTU21D;54120;53.504;49.426;2023-05-09T01:31:19;3.39;60.60
67192;HTU21D;54120;53.504;49.426;2023-05-09T01:36:55;3.67;60.27
67192;HTU21D;54120;53.504;49.426;2023-05-09T01:39:24;4.41;58.70
67192;HTU21D;54120;53.504;49.426;2023-05-09T01:42:11;6.87;50.48
67192;HTU21D;54120;53.504;49.426;2023-05-09T01:44:46;8.36;45.86
67192;HTU21D;54120;53.504;49.426;2023-05-09T01:47:31;8.28;45.62
67192;HTU21D;54120;53.504;49.426;2023-05-09T01:50:29;8.58;46.39
67192;HTU21D;54120;53.504;49.426;2023-05-09T01:52:56;10.85;40.10
67192;HTU21D;54120;53.504;49.426;2023-05-09T01:55:26;12.33;35.91
67192;HTU21D;54120;53.504;49.426;2023-05-09T01:57:53;13.19;33.80
67192;HTU21D;54120;53.504;49.426;2023-05-09T02:00:21;14.15;31.97
67192;HTU21D;54120;53.504;49.426;2023-05-09T02:02:49;14.44;30.44
67192;HTU21D;54120;53.504;49.426;2023-05-09T02:05:16;14.36;31.32
67192;HTU21D;54120;53.504;49.426;2023-05-09T02:07:46;15.31;30.04
67192;HTU21D;54120;53.504;49.426;2023-05-09T02:10:12;15.29;28.68
67192;HTU21D;54120;53.504;49.426;2023-05-09T02:12:40;15.27;28.70
67192;HTU21D;54120;53.504;49.426;2023-05-09T02:17:54;15.41;28.20
67192;HTU21D;54120;53.504;49.426;2023-05-09T02:20:21;14.95;29.01
67192;HTU21D;54120;53.504;49.426;2023-05-09T02:22:47;15.62;27.80
67192;HTU21D;54120;53.504;49.426;2023-05-09T02:25:13;15.12;28.68
67192;HTU21D;54120;53.504;49.426;2023-05-09T02:27:45;16.06;26.60
67192;HTU21D;54120;53.504;49.426;2023-05-09T02:30:16;16.15;26.75
67192;HTU21D;54120;53.504;49.426;2023-05-09T02:32:45;17.00;25.90
67192;HTU21D;54120;53.504;49.426;2023-05-09T02:35:14;16.64;25.71
67192;HTU21D;54120;53.504;49.426;2023-05-09T02:37:41;16.45;26.49
67192;HTU21D;54120;53.504;49.426;2023-05-09T02:40:07;15.58;27.84
67192;HTU21D;54120;53.504;49.426;2023-05-09T02:42:35;15.88;27.10
67192;HTU21D;54120;53.504;49.426;2023-05-09T02:45:01;17.07;25.66
67192;HTU21D;54120;53.504;49.426;2023-05-09T02:47:27;18.14;24.15
67192;HTU21D;54120;53.504;49.426;2023-05-09T02:49:53;18.93;22.73
67192;HTU21D;54120;53.504;49.426;2023-05-09T02:52:19;18.63;23.26
67192;HTU21D;54120;53.504;49.426;2023-05-09T02:54:46;18.55;23.22
67192;HTU21D;54120;53.504;49.426;2023-05-09T02:57:12;18.61;23.59
67192;HTU21D;54120;53.504;49.426;2023-05-09T02:59:38;18.41;22.99
67192;HTU21D;54120;53.504;49.426;2023-05-09T03:02:04;18.89;22.20
67192;HTU21D;54120;53.504;49.426;2023-05-09T03:04:31;18.82;22.67
67192;HTU21D;54120;53.504;49.426;2023-05-09T03:06:57;18.14;23.56
67192;HTU21D;54120;53.504;49.426;2023-05-09T03:09:23;18.34;23.23
67192;HTU21D;54120;53.504;49.426;2023-05-09T03:11:49;17.63;23.89
67192;HTU21D;54120;53.504;49.426;2023-05-09T03:14:15;16.59;26.28
67192;HTU21D;54120;53.504;49.426;2023-05-09T03:16:41;17.06;25.32
67192;HTU21D;54120;53.504;49.426;2023-05-09T03:19:08;17.79;24.22
67192;HTU21D;54120;53.504;49.426;2023-05-09T03:21:34;17.53;25.18
67192;HTU21D;54120;53.504;49.426;2023-05-09T03:24:00;18.13;24.01
67192;HTU21D;54120;53.504;49.426;2023-05-09T03:26:26;16.10;27.05
67192;HTU21D;54120;53.504;49.426;2023-05-09T03:28:52;15.82;28.18
67192;HTU21D;54120;53.504;49.426;2023-05-09T03:31:18;17.52;24.88
67192;HTU21D;54120;53.504;49.426;2023-05-09T03:33:44;17.01;25.70
67192;HTU21D;54120;53.504;49.426;2023-05-09T03:36:10;18.00;24.09
67192;HTU21D;54120;53.504;49.426;2023-05-09T03:38:36;17.48;24.77
67192;HTU21D;54120;53.504;49.426;2023-05-09T03:41:03;16.90;25.93
67192;HTU21D;54120;53.504;49.426;2023-05-09T03:43:29;18.71;21.89
67192;HTU21D;54120;53.504;49.426;2023-05-09T03:45:55;19.86;20.47
67192;HTU21D;54120;53.504;49.426;2023-05-09T03:48:21;20.59;19.70
67192;HTU21D;54120;53.504;49.426;2023-05-09T03:50:47;17.96;22.65
67192;HTU21D;54120;53.504;49.426;2023-05-09T03:53:13;17.09;23.59
67192;HTU21D;54120;53.504;49.426;2023-05-09T03:55:39;17.77;22.84
67192;HTU21D;54120;53.504;49.426;2023-05-09T03:58:05;18.53;21.46
67192;HTU21D;54120;53.504;49.426;2023-05-09T04:00:31;17.33;22.71
67192;HTU21D;54120;53.504;49.426;2023-05-09T04:02:57;16.87;23.95
67192;HTU21D;54120;53.504;49.426;2023-05-09T04:05:24;16.95;22.90
67192;HTU21D;54120;53.504;49.426;2023-05-09T04:07:51;17.95;21.97
67192;HTU21D;54120;53.504;49.426;2023-05-09T04:10:18;18.00;22.29
67192;HTU21D;54120;53.504;49.426;2023-05-09T04:12:44;16.13;24.17
67192;HTU21D;54120;53.504;49.426;2023-05-09T04:15:10;16.08;23.77
67192;HTU21D;54120;53.504;49.426;2023-05-09T04:17:36;16.54;22.98
67192;HTU21D;54120;53.504;49.426;2023-05-09T04:20:03;15.61;24.72
67192;HTU21D;54120;53.504;49.426;2023-05-09T04:22:30;16.32;24.08
67192;HTU21D;54120;53.504;49.426;2023-05-09T04:24:56;16.71;22.69
67192;HTU21D;54120;53.504;49.426;2023-05-09T04:27:22;17.23;21.73
67192;HTU21D;54120;53.504;49.426;2023-05-09T04:29:49;18.68;19.60
67192;HTU21D;54120;53.504;49.426;2023-05-09T04:32:15;19.08;18.80
67192;HTU21D;54120;53.504;49.426;2023-05-09T04:34:41;18.34;19.38
67192;HTU21D;54120;53.504;49.426;2023-05-09T04:37:07;18.24;19.36
67192;HTU21D;54120;53.504;49.426;2023-05-09T04:39:33;17.83;20.20
67192;HTU21D;54120;53.504;49.426;2023-05-09T04:42:00;18.86;18.53
67192;HTU21D;54120;53.504;49.426;2023-05-09T04:44:26;19.01;18.81
67192;HTU21D;54120;53.504;49.426;2023-05-09T04:46:52;19.05;17.26
67192;HTU21D;54120;53.504;49.426;2023-05-09T04:49:19;17.90;19.33
67192;HTU21D;54120;53.504;49.426;2023-05-09T04:51:45;17.49;18.61
67192;HTU21D;54120;53.504;49.426;2023-05-09T04:54:14;17.62;18.91
67192;HTU21D;54120;53.504;49.426;2023-05-09T04:56:40;17.53;19.43
67192;HTU21D;54120;53.504;49.426;2023-05-09T04:59:06;16.81;19.09
67192;HTU21D;54120;53.504;49.426;2023-05-09T05:01:33;16.67;19.75
67192;HTU21D;54120;53.504;49.426;2023-05-09T05:03:59;17.79;18.77
67192;HTU21D;54120;53.504;49.426;2023-05-09T05:06:25;18.77;17.71
67192;HTU21D;54120;53.504;49.426;2023-05-09T05:08:51;17.81;18.48
67192;HTU21D;54120;53.504;49.426;2023-05-09T05:11:17;17.75;19.11
67192;HTU21D;54120;53.504;49.426;2023-05-09T05:13:43;17.58;19.71
67192;HTU21D;54120;53.504;49.426;2023-05-09T05:16:09;16.69;21.39
67192;HTU21D;54120;53.504;49.426;2023-05-09T05:18:36;18.55;18.88
67192;HTU21D;54120;53.504;49.426;2023-05-09T05:21:02;17.50;20.66
67192;HTU21D;54120;53.504;49.426;2023-05-09T05:23:28;18.12;18.82
67192;HTU21D;54120;53.504;49.426;2023-05-09T05:25:55;18.87;16.81
67192;HTU21D;54120;53.504;49.426;2023-05-09T05:28:21;19.33;17.22
67192;HTU21D;54120;53.504;49.426;2023-05-09T05:30:48;18.77;16.13
67192;HTU21D;54120;53.504;49.426;2023-05-09T05:33:15;18.96;15.14
67192;HTU21D;54120;53.504;49.426;2023-05-09T05:35:41;19.22;14.57
67192;HTU21D;54120;53.504;49.426;2023-05-09T05:38:08;17.00;18.85
67192;HTU21D;54120;53.504;49.426;2023-05-09T05:40:34;16.77;19.77
67192;HTU21D;54120;53.504;49.426;2023-05-09T05:43:00;19.16;17.66
67192;HTU21D;54120;53.504;49.426;2023-05-09T05:45:26;19.22;17.12
67192;HTU21D;54120;53.504;49.426;2023-05-09T05:47:54;18.81;17.82
67192;HTU21D;54120;53.504;49.426;2023-05-09T05:50:21;19.48;16.53
67192;HTU21D;54120;53.504;49.426;2023-05-09T05:52:47;16.26;20.43
67192;HTU21D;54120;53.504;49.426;2023-05-09T05:55:13;16.46;20.18
67192;HTU21D;54120;53.504;49.426;2023-05-09T05:57:39;16.58;20.12
67192;HTU21D;54120;53.504;49.426;2023-05-09T06:00:06;16.76;19.70
67192;HTU21D;54120;53.504;49.426;2023-05-09T06:02:42;18.61;16.88
67192;HTU21D;54120;53.504;49.426;2023-05-09T06:05:10;17.13;19.27
67192;HTU21D;54120;53.504;49.426;2023-05-09T06:07:36;17.74;18.30
67192;HTU21D;54120;53.504;49.426;2023-05-09T06:10:02;17.47;19.14
67192;HTU21D;54120;53.504;49.426;2023-05-09T06:12:29;18.37;18.28
67192;HTU21D;54120;53.504;49.426;2023-05-09T06:14:55;19.72;15.23
67192;HTU21D;54120;53.504;49.426;2023-05-09T06:17:21;17.46;18.71
67192;HTU21D;54120;53.504;49.426;2023-05-09T06:19:47;18.86;16.68
67192;HTU21D;54120;53.504;49.426;2023-05-09T06:22:14;18.06;17.82
67192;HTU21D;54120;53.504;49.426;2023-05-09T06:24:40;17.70;18.28
67192;HTU21D;54120;53.504;49.426;2023-05-09T06:27:06;16.02;19.67
67192;HTU21D;54120;53.504;49.426;2023-05-09T06:29:33;17.11;19.30
67192;HTU21D;54120;53.504;49.426;2023-05-09T06:32:00;17.40;17.81
67192;HTU21D;54120;53.504;49.426;2023-05-09T06:34:26;15.60;20.54
67192;HTU21D;54120;53.504;49.426;2023-05-09T06:36:52;14.67;22.50
67192;HTU21D;54120;53.504;49.426;2023-05-09T06:39:18;16.04;20.96
67192;HTU21D;54120;53.504;49.426;2023-05-09T06:41:45;16.80;19.65
67192;HTU21D;54120;53.504;49.426;2023-05-09T06:44:11;16.92;20.25
67192;HTU21D;54120;53.504;49.426;2023-05-09T06:46:37;18.20;17.40
67192;HTU21D;54120;53.504;49.426;2023-05-09T06:49:04;17.20;18.64
67192;HTU21D;54120;53.504;49.426;2023-05-09T06:51:33;16.84;19.18
67192;HTU21D;54120;53.504;49.426;2023-05-09T06:54:01;16.64;19.27
67192;HTU21D;54120;53.504;49.426;2023-05-09T06:56:28;17.16;18.91
67192;HTU21D;54120;53.504;49.426;2023-05-09T06:58:55;17.24;18.13
67192;HTU21D;54120;53.504;49.426;2023-05-09T07:01:21;17.03;19.07
67192;HTU21D;54120;53.504;49.426;2023-05-09T07:03:47;16.24;19.54
67192;HTU21D;54120;53.504;49.426;2023-05-09T07:06:15;14.45;22.16
67192;HTU21D;54120;53.504;49.426;2023-05-09T07:08:41;15.78;22.15
67192;HTU21D;54120;53.504;49.426;2023-05-09T07:11:08;18.74;17.06
67192;HTU21D;54120;53.504;49.426;2023-05-09T07:13:34;17.89;19.25
67192;HTU21D;54120;53.504;49.426;2023-05-09T07:16:01;18.38;17.84
67192;HTU21D;54120;53.504;49.426;2023-05-09T07:18:27;18.26;17.96
67192;HTU21D;54120;53.504;49.426;2023-05-09T07:20:54;18.13;18.66
67192;HTU21D;54120;53.504;49.426;2023-05-09T07:23:21;18.27;18.57
67192;HTU21D;54120;53.504;49.426;2023-05-09T07:25:47;18.66;17.93
67192;HTU21D;54120;53.504;49.426;2023-05-09T07:28:14;17.62;19.73
67192;HTU21D;54120;53.504;49.426;2023-05-09T07:30:40;16.05;21.23
67192;HTU21D;54120;53.504;49.426;2023-05-09T07:33:08;16.37;21.25
67192;HTU21D;54120;53.504;49.426;2023-05-09T07:35:34;16.96;20.52
67192;HTU21D;54120;53.504;49.426;2023-05-09T07:38:01;16.85;20.51
67192;HTU21D;54120;53.504;49.426;2023-05-09T07:40:28;16.36;21.29
67192;HTU21D;54120;53.504;49.426;2023-05-09T07:42:54;15.27;23.00
67192;HTU21D;54120;53.504;49.426;2023-05-09T07:45:21;14.50;24.20
67192;HTU21D;54120;53.504;49.426;2023-05-09T07:47:48;13.31;25.39
67192;HTU21D;54120;53.504;49.426;2023-05-09T07:50:14;12.90;27.22
67192;HTU21D;54120;53.504;49.426;2023-05-09T07:52:42;13.02;27.45
67192;HTU21D;54120;53.504;49.426;2023-05-09T07:55:08;12.82;27.66
67192;HTU21D;54120;53.504;49.426;2023-05-09T07:57:35;12.76;28.49
67192;HTU21D;54120;53.504;49.426;2023-05-09T08:00:01;12.44;29.09
67192;HTU21D;54120;53.504;49.426;2023-05-09T08:02:27;12.62;28.82
67192;HTU21D;54120;53.504;49.426;2023-05-09T08:04:54;13.16;27.97
67192;HTU21D;54120;53.504;49.426;2023-05-09T08:07:20;13.17;28.49
67192;HTU21D;54120;53.504;49.426;2023-05-09T08:09:46;13.38;27.98
67192;HTU21D;54120;53.504;49.426;2023-05-09T08:12:13;13.43;27.97
67192;HTU21D;54120;53.504;49.426;2023-05-09T08:14:41;13.70;27.44
67192;HTU21D;54120;53.504;49.426;2023-05-09T08:17:07;13.47;28.03
67192;HTU21D;54120;53.504;49.426;2023-05-09T08:19:33;13.34;27.34
67192;HTU21D;54120;53.504;49.426;2023-05-09T08:22:00;13.50;27.94
67192;HTU21D;54120;53.504;49.426;2023-05-09T08:24:26;13.37;28.46
67192;HTU21D;54120;53.504;49.426;2023-05-09T08:26:53;13.55;26.39
67192;HTU21D;54120;53.504;49.426;2023-05-09T08:29:19;13.67;27.55
67192;HTU21D;54120;53.504;49.426;2023-05-09T08:31:45;14.21;26.86
67192;HTU21D;54120;53.504;49.426;2023-05-09T08:34:12;13.61;26.47
67192;HTU21D;54120;53.504;49.426;2023-05-09T08:36:38;13.52;27.40
67192;HTU21D;54120;53.504;49.426;2023-05-09T08:39:06;13.80;26.76
67192;HTU21D;54120;53.504;49.426;2023-05-09T08:41:33;14.39;25.12
67192;HTU21D;54120;53.504;49.426;2023-05-09T08:44:01;13.05;27.65
67192;HTU21D;54120;53.504;49.426;2023-05-09T08:46:32;13.21;27.36
67192;HTU21D;54120;53.504;49.426;2023-05-09T08:48:59;13.06;27.28
67192;HTU21D;54120;53.504;49.426;2023-05-09T08:55:29;13.21;27.85
67192;HTU21D;54120;53.504;49.426;2023-05-09T08:57:56;13.50;27.00
67192;HTU21D;54120;53.504;49.426;2023-05-09T09:00:24;13.32;27.06
67192;HTU21D;54120;53.504;49.426;2023-05-09T09:02:54;13.50;27.36
67192;HTU21D;54120;53.504;49.426;2023-05-09T09:05:22;14.25;25.70
67192;HTU21D;54120;53.504;49.426;2023-05-09T09:07:49;14.32;24.75
67192;HTU21D;54120;53.504;49.426;2023-05-09T09:10:16;14.53;24.83
67192;HTU21D;54120;53.504;49.426;2023-05-09T09:12:43;14.14;25.49
67192;HTU21D;54120;53.504;49.426;2023-05-09T09:15:14;14.03;24.92
67192;HTU21D;54120;53.504;49.426;2023-05-09T09:17:46;13.85;25.66
67192;HTU21D;54120;53.504;49.426;2023-05-09T09:20:14;13.22;26.71
67192;HTU21D;54120;53.504;49.426;2023-05-09T09:22:46;13.02;26.97
67192;HTU21D;54120;53.504;49.426;2023-05-09T09:25:13;13.17;26.66
67192;HTU21D;54120;53.504;49.426;2023-05-09T09:27:39;13.34;26.14
67192;HTU21D;54120;53.504;49.426;2023-05-09T09:30:11;13.55;27.04
67192;HTU21D;54120;53.504;49.426;2023-05-09T09:32:38;14.18;24.36
67192;HTU21D;54120;53.504;49.426;2023-05-09T09:35:06;13.58;26.42
67192;HTU21D;54120;53.504;49.426;2023-05-09T09:37:34;13.23;27.72
67192;HTU21D;54120;53.504;49.426;2023-05-09T09:40:01;13.49;27.03
67192;HTU21D;54120;53.504;49.426;2023-05-09T09:42:40;13.32;27.10
67192;HTU21D;54120;53.504;49.426;2023-05-09T09:45:12;13.71;27.74
67192;HTU21D;54120;53.504;49.426;2023-05-09T09:47:39;13.43;26.51
67192;HTU21D;54120;53.504;49.426;2023-05-09T09:50:13;13.05;27.52
67192;HTU21D;54120;53.504;49.426;2023-05-09T09:55:14;13.27;27.58
67192;HTU21D;54120;53.504;49.426;2023-05-09T09:57:41;13.48;26.47
67192;HTU21D;54120;53.504;49.426;2023-05-09T10:00:12;13.83;26.75
67192;HTU21D;54120;53.504;49.426;2023-05-09T10:02:55;13.89;26.01
67192;HTU21D;54120;53.504;49.426;2023-05-09T10:05:29;13.81;26.46
67192;HTU21D;54120;53.504;49.426;2023-05-09T10:08:01;13.73;26.23
67192;HTU21D;54120;53.504;49.426;2023-05-09T10:10:33;13.80;26.85
67192;HTU21D;54120;53.504;49.426;2023-05-09T10:13:08;13.95;25.65
67192;HTU21D;54120;53.504;49.426;2023-05-09T10:15:35;13.74;26.71
67192;HTU21D;54120;53.504;49.426;2023-05-09T10:18:02;13.69;25.77
67192;HTU21D;54120;53.504;49.426;2023-05-09T10:20:31;13.34;26.84
67192;HTU21D;54120;53.504;49.426;2023-05-09T10:23:00;13.40;27.35
67192;HTU21D;54120;53.504;49.426;2023-05-09T10:25:38;13.50;27.16
67192;HTU21D;54120;53.504;49.426;2023-05-09T10:28:12;13.76;25.92
67192;HTU21D;54120;53.504;49.426;2023-05-09T10:33:25;13.54;26.72
67192;HTU21D;54120;53.504;49.426;2023-05-09T10:35:53;14.28;26.31
67192;HTU21D;54120;53.504;49.426;2023-05-09T10:38:21;14.00;25.81
67192;HTU21D;54120;53.504;49.426;2023-05-09T10:40:49;13.98;26.77
67192;HTU21D;54120;53.504;49.426;2023-05-09T10:43:15;14.19;26.47
67192;HTU21D;54120;53.504;49.426;2023-05-09T10:45:42;14.27;26.60
67192;HTU21D;54120;53.504;49.426;2023-05-09T10:48:10;14.52;26.52
67192;HTU21D;54120;53.504;49.426;2023-05-09T10:50:37;14.75;26.19
67192;HTU21D;54120;53.504;49.426;2023-05-09T10:53:05;14.82;26.61
67192;HTU21D;54120;53.504;49.426;2023-05-09T11:00:53;14.26;25.89
67192;HTU21D;54120;53.504;49.426;2023-05-09T11:03:22;13.83;26.62
67192;HTU21D;54120;53.504;49.426;2023-05-09T11:05:54;14.13;26.83
67192;HTU21D;54120;53.504;49.426;2023-05-09T11:08:26;14.54;25.86
67192;HTU21D;54120;53.504;49.426;2023-05-09T11:10:54;14.11;26.26
67192;HTU21D;54120;53.504;49.426;2023-05-09T11:13:22;14.18;26.49
67192;HTU21D;54120;53.504;49.426;2023-05-09T11:15:56;14.50;25.88
67192;HTU21D;54120;53.504;49.426;2023-05-09T11:18:29;14.54;26.08
67192;HTU21D;54120;53.504;49.426;2023-05-09T11:20:55;14.45;26.35
67192;HTU21D;54120;53.504;49.426;2023-05-09T11:23:25;13.78;26.71
67192;HTU21D;54120;53.504;49.426;2023-05-09T11:25:52;14.09;27.04
67192;HTU21D;54120;53.504;49.426;2023-05-09T11:28:29;14.47;25.88
67192;HTU21D;54120;53.504;49.426;2023-05-09T11:31:15;14.25;26.65
67192;HTU21D;54120;53.504;49.426;2023-05-09T11:33:43;14.05;26.52
67192;HTU21D;54120;53.504;49.426;2023-05-09T11:36:21;14.03;26.46
67192;HTU21D;54120;53.504;49.426;2023-05-09T11:39:10;14.23;26.16
67192;HTU21D;54120;53.504;49.426;2023-05-09T11:41:41;14.17;26.03
67192;HTU21D;54120;53.504;49.426;2023-05-09T11:44:27;14.15;26.06
67192;HTU21D;54120;53.504;49.426;2023-05-09T11:46:56;14.01;26.43
67192;HTU21D;54120;53.504;49.426;2023-05-09T11:49:22;14.10;26.41
67192;HTU21D;54120;53.504;49.426;2023-05-09T11:51:48;14.36;26.87
67192;HTU21D;54120;53.504;49.426;2023-05-09T11:54:15;14.66;25.93
67192;HTU21D;54120;53.504;49.426;2023-05-09T11:56:41;14.42;26.26
67192;HTU21D;54120;53.504;49.426;2023-05-09T11:59:07;14.43;25.59
67192;HTU21D;54120;53.504;49.426;2023-05-09T12:01:35;14.55;24.69
67192;HTU21D;54120;53.504;49.426;2023-05-09T12:04:01;14.52;24.47
67192;HTU21D;54120;53.504;49.426;2023-05-09T12:06:27;14.27;24.47
67192;HTU21D;54120;53.504;49.426;2023-05-09T12:08:55;13.98;25.07
67192;HTU21D;54120;53.504;49.426;2023-05-09T12:11:24;13.90;25.21
67192;HTU21D;54120;53.504;49.426;2023-05-09T12:13:51;13.88;25.30
67192;HTU21D;54120;53.504;49.426;2023-05-09T12:16:18;13.97;25.59
67192;HTU21D;54120;53.504;49.426;2023-05-09T12:18:50;14.17;25.65
67192;HTU21D;54120;53.504;49.426;2023-05-09T12:21:18;14.71;25.39
67192;HTU21D;54120;53.504;49.426;2023-05-09T12:23:47;15.12;24.45
67192;HTU21D;54120;53.504;49.426;2023-05-09T12:26:14;14.93;24.43
67192;HTU21D;54120;53.504;49.426;2023-05-09T12:28:40;14.33;24.89
67192;HTU21D;54120;53.504;49.426;2023-05-09T12:31:07;14.35;24.59
67192;HTU21D;54120;53.504;49.426;2023-05-09T12:33:36;14.28;24.62
67192;HTU21D;54120;53.504;49.426;2023-05-09T12:36:06;14.20;25.38
67192;HTU21D;54120;53.504;49.426;2023-05-09T12:38:34;14.45;25.25
67192;HTU21D;54120;53.504;49.426;2023-05-09T12:41:08;14.78;24.85
67192;HTU21D;54120;53.504;49.426;2023-05-09T12:43:38;14.48;25.17
67192;HTU21D;54120;53.504;49.426;2023-05-09T12:46:08;14.69;24.28
67192;HTU21D;54120;53.504;49.426;2023-05-09T12:48:37;14.43;24.73
67192;HTU21D;54120;53.504;49.426;2023-05-09T12:51:06;14.54;25.01
67192;HTU21D;54120;53.504;49.426;2023-05-09T12:53:37;14.85;25.27
67192;HTU21D;54120;53.504;49.426;2023-05-09T12:56:17;14.84;24.69
67192;HTU21D;54120;53.504;49.426;2023-05-09T12:58:56;14.78;25.48
67192;HTU21D;54120;53.504;49.426;2023-05-09T13:01:26;14.72;25.62
67192;HTU21D;54120;53.504;49.426;2023-05-09T13:04:03;14.91;25.39
67192;HTU21D;54120;53.504;49.426;2023-05-09T13:06:30;14.72;25.05
67192;HTU21D;54120;53.504;49.426;2023-05-09T13:09:01;14.32;24.99
67192;HTU21D;54120;53.504;49.426;2023-05-09T13:11:30;14.14;25.24
67192;HTU21D;54120;53.504;49.426;2023-05-09T13:13:56;14.32;23.82
67192;HTU21D;54120;53.504;49.426;2023-05-09T13:16:23;14.41;23.72
67192;HTU21D;54120;53.504;49.426;2023-05-09T13:18:49;14.36;24.01
67192;HTU21D;54120;53.504;49.426;2023-05-09T13:21:16;14.18;24.36
67192;HTU21D;54120;53.504;49.426;2023-05-09T13:23:42;14.22;24.20
67192;HTU21D;54120;53.504;49.426;2023-05-09T13:26:10;13.99;25.07
67192;HTU21D;54120;53.504;49.426;2023-05-09T13:28:36;14.39;24.85
67192;HTU21D;54120;53.504;49.426;2023-05-09T13:31:02;14.42;24.93
67192;HTU21D;54120;53.504;49.426;2023-05-09T13:33:28;14.20;24.95
67192;HTU21D;54120;53.504;49.426;2023-05-09T13:35:54;14.12;24.84
67192;HTU21D;54120;53.504;49.426;2023-05-09T13:38:20;14.17;25.55
67192;HTU21D;54120;53.504;49.426;2023-05-09T13:40:47;14.22;25.23
67192;HTU21D;54120;53.504;49.426;2023-05-09T13:43:13;14.10;26.00
67192;HTU21D;54120;53.504;49.426;2023-05-09T13:45:39;14.19;26.04
67192;HTU21D;54120;53.504;49.426;2023-05-09T13:48:05;14.28;26.03
67192;HTU21D;54120;53.504;49.426;2023-05-09T13:50:32;14.36;25.18
67192;HTU21D;54120;53.504;49.426;2023-05-09T13:52:58;14.20;26.23
67192;HTU21D;54120;53.504;49.426;2023-05-09T13:55:24;14.21;26.03
67192;HTU21D;54120;53.504;49.426;2023-05-09T13:57:52;14.17;26.82
67192;HTU21D;54120;53.504;49.426;2023-05-09T14:00:18;14.28;26.85
67192;HTU21D;54120;53.504;49.426;2023-05-09T14:02:45;14.39;26.57
67192;HTU21D;54120;53.504;49.426;2023-05-09T14:05:11;14.30;26.77
67192;HTU21D;54120;53.504;49.426;2023-05-09T14:07:37;14.22;27.00
67192;HTU21D;54120;53.504;49.426;2023-05-09T14:10:04;14.14;27.12
67192;HTU21D;54120;53.504;49.426;2023-05-09T14:12:31;14.07;27.19
67192;HTU21D;54120;53.504;49.426;2023-05-09T14:14:57;13.88;27.69
67192;HTU21D;54120;53.504;49.426;2023-05-09T14:17:23;13.98;27.99
67192;HTU21D;54120;53.504;49.426;2023-05-09T14:19:50;13.76;28.04
67192;HTU21D;54120;53.504;49.426;2023-05-09T14:22:16;13.76;28.44
67192;HTU21D;54120;53.504;49.426;2023-05-09T14:24:42;13.62;28.84
67192;HTU21D;54120;53.504;49.426;2023-05-09T14:27:08;13.81;29.03
67192;HTU21D;54120;53.504;49.426;2023-05-09T14:29:34;14.00;28.61
67192;HTU21D;54120;53.504;49.426;2023-05-09T14:32:02;13.84;28.77
67192;HTU21D;54120;53.504;49.426;2023-05-09T14:34:28;13.62;29.25
67192;HTU21D;54120;53.504;49.426;2023-05-09T14:36:55;13.73;29.46
67192;HTU21D;54120;53.504;49.426;2023-05-09T14:39:21;13.70;28.85
67192;HTU21D;54120;53.504;49.426;2023-05-09T14:41:48;13.65;29.29
67192;HTU21D;54120;53.504;49.426;2023-05-09T14:44:15;13.71;29.19
67192;HTU21D;54120;53.504;49.426;2023-05-09T14:46:42;13.70;29.32
67192;HTU21D;54120;53.504;49.426;2023-05-09T14:49:08;13.60;29.34
67192;HTU21D;54120;53.504;49.426;2023-05-09T14:51:34;13.50;29.97
67192;HTU21D;54120;53.504;49.426;2023-05-09T14:54:00;13.51;29.85
67192;HTU21D;54120;53.504;49.426;2023-05-09T14:56:27;13.47;30.59
67192;HTU21D;54120;53.504;49.426;2023-05-09T14:58:53;13.44;30.10
67192;HTU21D;54120;53.504;49.426;2023-05-09T15:01:20;13.36;29.78
67192;HTU21D;54120;53.504;49.426;2023-05-09T15:03:46;13.30;29.91
67192;HTU21D;54120;53.504;49.426;2023-05-09T15:06:13;13.26;30.17
67192;HTU21D;54120;53.504;49.426;2023-05-09T15:08:39;13.22;30.23
67192;HTU21D;54120;53.504;49.426;2023-05-09T15:11:05;13.17;30.53
67192;HTU21D;54120;53.504;49.426;2023-05-09T15:13:32;13.16;30.35
67192;HTU21D;54120;53.504;49.426;2023-05-09T15:15:58;13.10;30.78
67192;HTU21D;54120;53.504;49.426;2023-05-09T15:18:25;13.08;30.93
67192;HTU21D;54120;53.504;49.426;2023-05-09T15:20:54;13.05;30.70
67192;HTU21D;54120;53.504;49.426;2023-05-09T15:23:20;13.00;31.13
67192;HTU21D;54120;53.504;49.426;2023-05-09T15:25:48;12.99;31.41
67192;HTU21D;54120;53.504;49.426;2023-05-09T15:28:14;12.93;30.81
67192;HTU21D;54120;53.504;49.426;2023-05-09T15:30:41;12.88;31.09
67192;HTU21D;54120;53.504;49.426;2023-05-09T15:33:07;12.86;30.99
67192;HTU21D;54120;53.504;49.426;2023-05-09T15:35:33;12.81;31.33
67192;HTU21D;54120;53.504;49.426;2023-05-09T15:38:00;12.76;30.94
67192;HTU21D;54120;53.504;49.426;2023-05-09T15:40:27;12.72;31.54
67192;HTU21D;54120;53.504;49.426;2023-05-09T15:42:54;12.67;30.96
67192;HTU21D;54120;53.504;49.426;2023-05-09T15:45:21;12.64;31.41
67192;HTU21D;54120;53.504;49.426;2023-05-09T15:47:48;12.59;31.79
67192;HTU21D;54120;53.504;49.426;2023-05-09T15:50:15;12.53;31.70